Hawick, Minnesota
Current Conditions -  °F | °C
As of 4:34 PM on Friday 19 Dec 2014 (Local Time) from KPEX Reporting Station
Haze Haze  
Wind Chill: 21°   Ceiling: 800
Heat Index: 28°   Visibility: 3mi
Dew Point: 27°   Wind: 7mph
Humidity: 97%   Direction: 120°ESE
Pressure: 30.13"   Gusts: NA
Location:  45.35°N, 94.83°W
Report Text: KPEX 192234Z AUTO 12006KT 3SM BR OVC008 M02/M03 A3013 RMK AO2 T10231027
Loading
Personal Weather Stations






























Interactive Weather Map New forecast layout! Learn more

10-Day Weather Forecast

Advertisements
Track Severe Weather on mobile